Time;durP1;ratioP1;P1;durP2;ratioP2;P2;SDS_P1;SDS_P2;PMS_P1;PMS_P2;Temp;Humidity;BMP_temperature;BMP_pressure;BME280_temperature;BME280_humidity;BME280_pressure;Samples;Min_cycle;Max_cycle;Signal;HPM_P1;HPM_P2
2022/06/11 00:01:06;;;;;;;;;;;;;;;16.43;64.96;100482.84;5026630;28;1254;-95
2022/06/11 00:03:33;;;;;;;;;;;;;;;16.42;64.92;100481.22;5016558;28;1352;-96
2022/06/11 00:05:59;;;;;;;;;;;;;;;16.43;64.88;100471.16;5032622;28;4818;-95
2022/06/11 00:08:26;;;;;;;;;;;;;;;16.41;64.88;100471.41;5036064;28;1346;-95
2022/06/11 00:10:52;;;;;;;;;;;;;;;16.42;64.92;100474.97;5035213;28;1177;-95
2022/06/11 00:13:22;;;;;;;;;;;;;;;16.41;64.91;100479.56;5032366;28;1915;-95
2022/06/11 00:15:48;;;;;;;;;;;;;;;16.41;64.97;100473.31;5022093;28;1327;-95
2022/06/11 00:18:15;;;;;;;;;;;;;;;16.40;64.93;100468.94;5035827;28;1293;-96
2022/06/11 00:20:41;;;;;;;;;;;;;;;16.38;64.97;100466.47;5034767;28;1670;-95
2022/06/11 00:23:08;;;;;;;;;;;;;;;16.38;64.87;100466.47;5035747;28;1408;-96
2022/06/11 00:25:34;;;;;;;;;;;;;;;16.37;64.90;100464.84;5035145;28;1565;-95
2022/06/11 00:28:01;;;;;;;;;;;;;;;16.37;64.87;100469.47;5024489;28;2077;-96
2022/06/11 00:30:27;;;;;;;;;;;;;;;16.36;64.88;100465.94;5037279;28;1812;-95
2022/06/11 00:32:55;;;;;;;;;;;;;;;16.36;64.93;100460.50;5052058;28;1296;-95
2022/06/11 00:35:21;;;;;;;;;;;;;;;16.35;64.91;100451.53;5054985;28;1981;-96
2022/06/11 00:37:48;;;;;;;;;;;;;;;16.35;64.93;100453.41;5029698;28;3366;-96
2022/06/11 00:40:15;;;;;;;;;;;;;;;16.34;64.75;100455.31;5035042;28;1991;-95
2022/06/11 00:42:41;;;;;;;;;;;;;;;16.34;64.85;100449.06;5018623;28;1216;-95
2022/06/11 00:45:08;;;;;;;;;;;;;;;16.34;64.84;100447.16;5026640;28;1825;-95
2022/06/11 00:47:34;;;;;;;;;;;;;;;16.34;64.77;100449.06;5035283;28;1175;-96
2022/06/11 00:50:01;;;;;;;;;;;;;;;16.32;64.79;100452.06;5034894;28;1518;-96
2022/06/11 00:52:27;;;;;;;;;;;;;;;16.33;64.79;100444.72;5030809;28;1639;-96
2022/06/11 00:54:54;;;;;;;;;;;;;;;16.32;64.73;100443.06;5041138;28;1906;-95
2022/06/11 00:57:20;;;;;;;;;;;;;;;16.30;64.84;100429.75;5053149;28;2087;-96
2022/06/11 00:59:47;;;;;;;;;;;;;;;16.31;64.82;100433.28;5038503;28;1327;-96
2022/06/11 01:02:13;;;;;;;;;;;;;;;16.29;64.86;100428.09;5054529;28;1349;-95
2022/06/11 01:04:40;;;;;;;;;;;;;;;16.28;64.85;100429.19;5055183;28;1203;-96
2022/06/11 01:07:06;;;;;;;;;;;;;;;16.28;64.89;100417.50;5067898;28;2169;-96
2022/06/11 01:09:33;;;;;;;;;;;;;;;16.28;64.78;100422.94;5049684;28;5128;-95
2022/06/11 01:11:59;;;;;;;;;;;;;;;16.27;64.71;100422.13;5070684;28;1396;-95
2022/06/11 01:14:26;;;;;;;;;;;;;;;16.27;64.74;100411.25;5054620;28;1906;-96
2022/06/11 01:16:53;;;;;;;;;;;;;;;16.27;64.71;100413.16;5053563;28;1289;-95
2022/06/11 01:19:20;;;;;;;;;;;;;;;16.27;64.78;100418.59;5054661;28;1218;-95
2022/06/11 01:21:46;;;;;;;;;;;;;;;16.26;64.70;100420.47;5036802;28;1396;-95
2022/06/11 01:24:13;;;;;;;;;;;;;;;16.26;64.61;100420.47;5034723;28;1179;-95
2022/06/11 01:26:40;;;;;;;;;;;;;;;16.27;64.68;100421.31;5041932;28;2104;-95
2022/06/11 01:29:06;;;;;;;;;;;;;;;16.25;64.74;100415.31;5069794;28;2210;-95
2022/06/11 01:31:33;;;;;;;;;;;;;;;16.25;64.71;100412.59;5058891;28;1683;-95
2022/06/11 01:33:59;;;;;;;;;;;;;;;16.25;64.70;100418.03;5065246;28;4688;-95
2022/06/11 01:36:26;;;;;;;;;;;;;;;16.25;64.64;100418.84;5047323;28;1450;-95
2022/06/11 01:38:52;;;;;;;;;;;;;;;16.25;64.67;100409.88;5053460;28;1436;-95
2022/06/11 01:41:19;;;;;;;;;;;;;;;16.24;64.59;100414.50;5051135;28;3774;-95
2022/06/11 01:43:46;;;;;;;;;;;;;;;16.23;64.62;100421.00;5070848;28;1199;-95
2022/06/11 01:46:12;;;;;;;;;;;;;;;16.22;64.68;100413.94;5042975;28;3528;-95
2022/06/11 01:48:39;;;;;;;;;;;;;;;16.23;64.63;100412.03;5054654;28;1211;-95
2022/06/11 01:51:05;;;;;;;;;;;;;;;16.23;64.54;100414.75;5054438;28;1431;-96
2022/06/11 01:53:32;;;;;;;;;;;;;;;16.20;64.55;100407.91;5066920;28;2546;-96
2022/06/11 01:55:58;;;;;;;;;;;;;;;16.19;64.63;100408.19;5052862;28;2176;-96
2022/06/11 01:58:25;;;;;;;;;;;;;;;16.18;64.63;100399.22;5066602;28;1948;-96
2022/06/11 02:00:51;;;;;;;;;;;;;;;16.17;64.67;100405.72;5069656;28;1407;-95
2022/06/11 02:03:18;;;;;;;;;;;;;;;16.15;64.71;100399.75;5050102;28;1356;-95
2022/06/11 02:05:45;;;;;;;;;;;;;;;16.16;64.63;100409.53;5061338;28;2748;-95
2022/06/11 02:08:12;;;;;;;;;;;;;;;16.16;64.56;100401.38;5054397;28;1176;-96
2022/06/11 02:10:38;;;;;;;;;;;;;;;16.17;64.47;100407.63;5067800;28;2994;-95
2022/06/11 02:13:05;;;;;;;;;;;;;;;16.18;64.56;100403.81;5054345;28;1398;-95
2022/06/11 02:15:31;;;;;;;;;;;;;;;16.16;64.50;100406.81;5070440;28;1913;-96
2022/06/11 02:17:58;;;;;;;;;;;;;;;16.16;64.46;100400.56;5054292;28;1370;-96
2022/06/11 02:20:24;;;;;;;;;;;;;;;16.15;64.48;100407.91;5053665;28;1395;-96
2022/06/11 02:22:51;;;;;;;;;;;;;;;16.13;64.55;100393.75;5052141;28;2105;-95
2022/06/11 02:25:17;;;;;;;;;;;;;;;16.10;64.56;100400.53;5057051;28;1954;-96
2022/06/11 02:27:44;;;;;;;;;;;;;;;16.11;64.55;100401.34;5050675;28;1646;-95
2022/06/11 02:30:10;;;;;;;;;;;;;;;16.12;64.43;100400.28;5053873;28;1615;-95
2022/06/11 02:32:37;;;;;;;;;;;;;;;16.12;64.49;100403.81;5052754;28;1701;-96
2022/06/11 02:35:04;;;;;;;;;;;;;;;16.11;64.38;100402.16;5053626;28;1978;-95
2022/06/11 02:37:30;;;;;;;;;;;;;;;16.11;64.43;100406.78;5048033;28;1899;-95
2022/06/11 02:39:57;;;;;;;;;;;;;;;16.10;64.40;100414.09;5051477;28;1485;-95
2022/06/11 02:42:23;;;;;;;;;;;;;;;16.08;64.49;100412.72;5038046;28;1245;-96
2022/06/11 02:44:50;;;;;;;;;;;;;;;16.08;64.13;100420.88;5070347;28;1175;-96
2022/06/11 02:47:16;;;;;;;;;;;;;;;16.09;64.32;100422.53;5053576;28;1414;-95
2022/06/11 02:49:43;;;;;;;;;;;;;;;16.07;64.31;100421.97;5053792;28;1704;-96
2022/06/11 02:52:10;;;;;;;;;;;;;;;16.07;64.47;100424.69;5051905;28;3839;-96
2022/06/11 02:54:36;;;;;;;;;;;;;;;16.06;64.34;100415.72;5053279;28;1918;-95
2022/06/11 02:57:03;;;;;;;;;;;;;;;16.05;64.40;100435.78;5051428;28;1945;-95
2022/06/11 02:59:29;;;;;;;;;;;;;;;16.05;64.36;100421.41;5053557;28;1211;-96
2022/06/11 03:01:56;;;;;;;;;;;;;;;16.03;64.38;100424.38;5038658;28;2018;-95
2022/06/11 03:04:22;;;;;;;;;;;;;;;16.03;64.51;100413.53;5053439;28;1359;-95
2022/06/11 03:06:49;;;;;;;;;;;;;;;16.03;64.28;100413.53;5040103;28;1232;-95
2022/06/11 03:09:15;;;;;;;;;;;;;;;16.03;64.20;100421.66;5051645;28;1830;-95
2022/06/11 03:11:42;;;;;;;;;;;;;;;16.02;64.24;100420.00;5036625;28;1368;-96
2022/06/11 03:14:09;;;;;;;;;;;;;;;16.01;64.28;100417.56;5039603;28;2227;-96
2022/06/11 03:16:37;;;;;;;;;;;;;;;16.00;64.41;100418.63;5055374;28;1952;-96
2022/06/11 03:19:03;;;;;;;;;;;;;;;16.00;64.25;100421.34;5056830;28;1279;-96
2022/06/11 03:21:30;;;;;;;;;;;;;;;15.99;64.25;100422.44;5056274;28;1532;-96
2022/06/11 03:23:56;;;;;;;;;;;;;;;15.99;64.22;100420.53;5056999;28;1187;-96
2022/06/11 03:26:23;;;;;;;;;;;;;;;15.98;64.21;100418.91;5050879;28;1827;-95
2022/06/11 03:28:49;;;;;;;;;;;;;;;15.97;64.18;100416.44;5065548;28;1646;-96
2022/06/11 03:31:16;;;;;;;;;;;;;;;15.97;64.08;100430.00;5055844;28;1320;-95
2022/06/11 03:33:43;;;;;;;;;;;;;;;15.97;64.18;100422.72;5056961;28;1198;-95
2022/06/11 03:36:09;;;;;;;;;;;;;;;15.94;64.14;100417.75;5072241;28;2037;-95
2022/06/11 03:38:36;;;;;;;;;;;;;;;15.94;64.19;100420.47;5044524;28;2103;-96
2022/06/11 03:41:03;;;;;;;;;;;;;;;15.95;64.11;100418.59;5052585;28;1196;-96
2022/06/11 03:43:29;;;;;;;;;;;;;;;15.94;64.12;100412.31;5053475;28;1184;-95
2022/06/11 03:45:56;;;;;;;;;;;;;;;15.93;64.12;100424.28;5056157;28;1437;-95
2022/06/11 03:48:22;;;;;;;;;;;;;;;15.93;64.06;100423.47;5053161;28;1183;-96
2022/06/11 03:50:49;;;;;;;;;;;;;;;15.91;64.17;100415.56;5059173;28;1529;-95
2022/06/11 03:53:15;;;;;;;;;;;;;;;15.92;64.13;100424.56;5037365;28;1360;-96
2022/06/11 03:55:42;;;;;;;;;;;;;;;15.90;64.09;100419.38;5048210;28;1918;-96
2022/06/11 03:58:08;;;;;;;;;;;;;;;15.89;64.20;100418.56;5051659;28;1973;-95
2022/06/11 04:03:19;;;;;;;;;;;;;;;15.89;64.08;100437.56;5054794;28;5297;-96
2022/06/11 04:05:46;;;;;;;;;;;;;;;15.89;64.08;100439.47;5058957;28;5214;-95
2022/06/11 04:08:12;;;;;;;;;;;;;;;15.87;64.04;100437.00;5072726;28;1693;-96
2022/06/11 04:10:39;;;;;;;;;;;;;;;15.88;64.10;100443.25;5056227;28;1240;-96
2022/06/11 04:13:07;;;;;;;;;;;;;;;15.87;64.06;100442.44;5055791;28;1495;-96
2022/06/11 04:15:34;;;;;;;;;;;;;;;15.87;63.97;100444.31;5055071;28;1996;-96
2022/06/11 04:18:01;;;;;;;;;;;;;;;15.85;64.02;100436.44;5052679;28;3696;-96
2022/06/11 04:20:27;;;;;;;;;;;;;;;15.85;64.03;100444.59;5054920;28;5445;-95
2022/06/11 04:22:54;;;;;;;;;;;;;;;15.83;64.08;100441.31;5055664;28;1171;-95
2022/06/11 04:25:21;;;;;;;;;;;;;;;15.84;63.93;100448.38;5053994;28;1422;-95
2022/06/11 04:27:53;;;;;;;;;;;;;;;15.83;64.05;100444.03;5051547;28;1976;-95
2022/06/11 04:30:19;;;;;;;;;;;;;;;15.83;63.97;100440.50;5053957;28;1268;-95
2022/06/11 04:32:46;;;;;;;;;;;;;;;15.81;64.01;100443.47;5055486;28;1179;-96
2022/06/11 04:35:13;;;;;;;;;;;;;;;15.81;64.01;100443.47;5059911;28;2536;-95
2022/06/11 04:37:39;;;;;;;;;;;;;;;15.80;64.11;100436.41;5035372;28;1998;-95
2022/06/11 04:40:07;;;;;;;;;;;;;;;15.80;63.96;100435.59;5036784;28;1050;-95
2022/06/11 04:42:34;;;;;;;;;;;;;;;15.80;63.97;100441.00;5042042;28;1560;-95
2022/06/11 04:45:00;;;;;;;;;;;;;;;15.79;64.02;100440.16;5052262;28;1458;-95
2022/06/11 04:47:27;;;;;;;;;;;;;;;15.80;63.93;100444.53;5054602;28;1856;-95
2022/06/11 04:49:53;;;;;;;;;;;;;;;15.79;63.98;100440.16;5054213;28;1479;-95
2022/06/11 04:52:20;;;;;;;;;;;;;;;15.78;63.99;100443.16;5054556;28;1654;-95
2022/06/11 04:54:46;;;;;;;;;;;;;;;15.77;64.00;100433.38;5053670;28;1988;-95
2022/06/11 04:57:13;;;;;;;;;;;;;;;15.77;63.96;100434.19;5050215;28;2036;-95
2022/06/11 04:59:39;;;;;;;;;;;;;;;15.77;63.95;100430.66;5042786;28;1184;-95
2022/06/11 05:02:06;;;;;;;;;;;;;;;15.76;63.88;100437.97;5060690;28;1327;-95
2022/06/11 05:04:32;;;;;;;;;;;;;;;15.76;64.01;100443.41;5067405;28;1209;-96
2022/06/11 05:06:59;;;;;;;;;;;;;;;15.76;63.97;100445.31;5070505;28;1229;-95
2022/06/11 05:09:25;;;;;;;;;;;;;;;15.75;63.94;100439.06;5039328;28;2130;-94
2022/06/11 05:11:53;;;;;;;;;;;;;;;15.74;63.98;100431.19;5034846;28;1208;-95
2022/06/11 05:14:20;;;;;;;;;;;;;;;15.73;63.91;100426.81;5041946;28;1350;-96
2022/06/11 05:16:46;;;;;;;;;;;;;;;15.74;63.93;100431.19;5054138;28;1991;-95
2022/06/11 05:19:13;;;;;;;;;;;;;;;15.72;63.75;100439.56;5071182;28;1168;-95
2022/06/11 05:21:39;;;;;;;;;;;;;;;15.71;63.91;100432.50;5050883;28;3684;-94
2022/06/11 05:24:06;;;;;;;;;;;;;;;15.73;63.89;100440.38;5034374;28;5335;-95
2022/06/11 05:26:32;;;;;;;;;;;;;;;15.71;63.86;100437.13;5052603;28;1764;-95
2022/06/11 05:28:59;;;;;;;;;;;;;;;15.70;63.95;100441.72;5050616;28;1538;-95
2022/06/11 05:31:25;;;;;;;;;;;;;;;15.71;63.88;100434.41;5044712;28;1349;-92
2022/06/11 05:33:52;;;;;;;;;;;;;;;15.69;63.86;100431.94;5054203;28;1279;-95
2022/06/11 05:36:20;;;;;;;;;;;;;;;15.70;63.90;100439.00;5054026;28;2005;-95
2022/06/11 05:38:46;;;;;;;;;;;;;;;15.69;63.86;100436.56;5054317;28;1292;-96
2022/06/11 05:41:13;;;;;;;;;;;;;;;15.69;63.81;100428.41;5046503;28;1276;-94
2022/06/11 05:43:39;;;;;;;;;;;;;;;15.68;63.87;100433.03;5050798;28;1175;-94
2022/06/11 05:46:06;;;;;;;;;;;;;;;15.67;63.83;100434.91;5054773;28;1528;-95
2022/06/11 05:48:33;;;;;;;;;;;;;;;15.68;63.87;100435.75;5045874;28;1522;-95
2022/06/11 05:50:59;;;;;;;;;;;;;;;15.68;63.80;100435.75;5049849;28;1989;-94
2022/06/11 05:53:26;;;;;;;;;;;;;;;15.66;63.73;100432.41;5051896;28;2097;-95
2022/06/11 05:55:52;;;;;;;;;;;;;;;15.66;63.71;100425.09;5044745;28;2702;-95
2022/06/11 05:58:19;;;;;;;;;;;;;;;15.66;63.75;100429.72;5064829;28;1791;-94
2022/06/11 06:00:45;;;;;;;;;;;;;;;15.64;63.80;100421.00;5053495;28;2414;-95
2022/06/11 06:03:12;;;;;;;;;;;;;;;15.64;63.82;100423.69;5053857;28;1821;-95
2022/06/11 06:05:39;;;;;;;;;;;;;;;15.64;63.72;100426.41;5052857;28;1443;-95
2022/06/11 06:08:05;;;;;;;;;;;;;;;15.64;63.78;100421.00;5051711;28;2198;-94
2022/06/11 06:10:32;;;;;;;;;;;;;;;15.63;63.83;100435.66;5070583;28;1209;-94
2022/06/11 06:12:59;;;;;;;;;;;;;;;15.62;nan;100434.84;5070061;28;1349;-95
2022/06/11 06:15:25;;;;;;;;;;;;;;;15.61;63.80;100441.31;5054427;28;1946;-95
2022/06/11 06:17:52;;;;;;;;;;;;;;;15.61;63.86;100433.19;5070030;28;1248;-94
2022/06/11 06:20:18;;;;;;;;;;;;;;;15.61;63.75;100429.66;5053275;28;1188;-94
2022/06/11 06:22:45;;;;;;;;;;;;;;;15.61;63.74;100435.06;5051637;28;1941;-95
2022/06/11 06:25:11;;;;;;;;;;;;;;;15.60;63.70;100431.53;5056228;28;1717;-94
2022/06/11 06:27:38;;;;;;;;;;;;;;;15.61;63.80;100421.50;5036189;28;3672;-95
2022/06/11 06:30:05;;;;;;;;;;;;;;;15.59;63.68;100418.25;5040370;28;4692;-94
2022/06/11 06:32:32;;;;;;;;;;;;;;;15.58;63.78;100430.16;5051938;28;2477;-94
2022/06/11 06:34:58;;;;;;;;;;;;;;;15.59;63.70;100431.81;5070540;28;1915;-94
2022/06/11 06:37:25;;;;;;;;;;;;;;;15.59;63.79;100429.91;5070534;28;1478;-95
2022/06/11 06:39:51;;;;;;;;;;;;;;;15.55;63.78;100434.19;5071282;28;1542;-94
2022/06/11 06:42:18;;;;;;;;;;;;;;;15.57;63.79;100440.19;5070400;28;1203;-94
2022/06/11 06:44:44;;;;;;;;;;;;;;;15.59;63.78;100440.78;5074421;28;1199;-95
2022/06/11 06:47:11;;;;;;;;;;;;;;;15.57;63.71;100426.63;5062457;28;1282;-94
2022/06/11 06:49:38;;;;;;;;;;;;;;;15.58;63.71;100428.25;5074587;28;1530;-95
2022/06/11 06:52:04;;;;;;;;;;;;;;;15.58;63.68;100428.25;5073383;28;1199;-93
2022/06/11 06:54:31;;;;;;;;;;;;;;;15.58;63.65;100430.97;5073751;28;1424;-95
2022/06/11 06:56:57;;;;;;;;;;;;;;;15.56;63.62;100441.28;5073392;28;1917;-93
2022/06/11 06:59:24;;;;;;;;;;;;;;;15.57;63.85;100434.78;5073903;28;1240;-94
2022/06/11 07:01:51;;;;;;;;;;;;;;;15.58;63.65;100435.59;5056531;28;1275;-94
2022/06/11 07:04:18;;;;;;;;;;;;;;;15.58;63.67;100438.31;5051878;28;1607;-94
2022/06/11 07:06:44;;;;;;;;;;;;;;;15.59;63.60;100429.09;5056715;28;1404;-94
2022/06/11 07:09:11;;;;;;;;;;;;;;;15.56;63.67;100426.88;5056942;28;1315;-94
2022/06/11 07:11:37;;;;;;;;;;;;;;;15.56;63.69;100426.88;5059768;28;1227;-94
2022/06/11 07:14:04;;;;;;;;;;;;;;;15.55;63.65;100425.25;5073535;28;1433;-94
2022/06/11 07:16:31;;;;;;;;;;;;;;;15.56;63.68;100422.28;5056915;28;1918;-95
2022/06/11 07:18:58;;;;;;;;;;;;;;;15.57;63.69;100417.66;5055370;28;1179;-94
2022/06/11 07:21:24;;;;;;;;;;;;;;;15.56;63.58;100426.88;5051817;28;1340;-94
2022/06/11 07:23:51;;;;;;;;;;;;;;;15.56;63.57;100421.44;5049372;28;1568;-94
2022/06/11 07:26:17;;;;;;;;;;;;;;;15.55;63.63;100420.63;5050617;28;1597;-93
2022/06/11 07:28:44;;;;;;;;;;;;;;;15.55;63.65;100423.34;5054394;28;5090;-94
2022/06/11 07:31:11;;;;;;;;;;;;;;;15.55;63.60;100419.81;5056125;28;3132;-95
2022/06/11 07:33:37;;;;;;;;;;;;;;;15.56;63.55;100418.72;5056066;28;1327;-94
2022/06/11 07:36:04;;;;;;;;;;;;;;;15.57;63.61;100428.53;5073275;28;1980;-94
2022/06/11 07:38:30;;;;;;;;;;;;;;;15.56;63.57;100421.44;5056329;28;1282;-95
2022/06/11 07:40:57;;;;;;;;;;;;;;;15.56;63.69;100421.44;5056547;28;1366;-93
2022/06/11 07:43:24;;;;;;;;;;;;;;;15.55;63.61;100419.81;5057167;28;1334;-95
2022/06/11 07:45:51;;;;;;;;;;;;;;;15.56;63.58;100421.44;5074097;28;1210;-94
2022/06/11 07:48:17;;;;;;;;;;;;;;;15.55;63.51;100417.91;5075375;28;1187;-94
2022/06/11 07:50:44;;;;;;;;;;;;;;;15.55;63.52;100422.53;5073164;28;1187;-94
2022/06/11 07:53:12;;;;;;;;;;;;;;;15.52;63.56;100425.75;5055808;28;1284;-96
2022/06/11 07:55:39;;;;;;;;;;;;;;;15.54;63.57;100424.44;5057445;28;1890;-96
2022/06/11 07:58:06;;;;;;;;;;;;;;;15.55;63.56;100415.19;5057153;28;1381;-95
2022/06/11 08:00:35;;;;;;;;;;;;;;;15.56;63.59;100416.84;5072804;28;1204;-94
2022/06/11 08:03:01;;;;;;;;;;;;;;;15.56;63.79;100426.88;5072687;28;1208;-93
2022/06/11 08:05:28;;;;;;;;;;;;;;;15.56;63.54;100422.28;5062960;28;1341;-93
2022/06/11 08:07:54;;;;;;;;;;;;;;;15.56;63.59;100425.00;5053826;28;1302;-92
2022/06/11 08:10:21;;;;;;;;;;;;;;;15.56;63.50;100419.56;5052783;28;1921;-92
2022/06/11 08:12:48;;;;;;;;;;;;;;;15.57;63.60;100425.81;5053395;28;1872;-95
2022/06/11 08:15:14;;;;;;;;;;;;;;;15.57;63.66;100415.78;5055904;28;1245;-93
2022/06/11 08:17:41;;;;;;;;;;;;;;;15.57;63.60;100417.66;5040041;28;5041;-92
2022/06/11 08:20:07;;;;;;;;;;;;;;;15.57;63.54;100420.38;5055478;28;1451;-92
2022/06/11 08:22:34;;;;;;;;;;;;;;;15.56;63.69;100418.72;5070140;28;1675;-92
2022/06/11 08:25:01;;;;;;;;;;;;;;;15.57;63.60;100420.38;5055213;28;1285;-93
2022/06/11 08:27:27;;;;;;;;;;;;;;;15.56;63.70;100422.28;5054627;28;1211;-93
2022/06/11 08:29:53;;;;;;;;;;;;;;;15.57;63.60;100433.97;5069329;28;2206;-93
2022/06/11 08:32:20;;;;;;;;;;;;;;;15.58;63.62;100439.13;5050817;28;4148;-93
2022/06/11 08:34:46;;;;;;;;;;;;;;;15.60;63.68;100441.59;5042806;28;5378;-93
2022/06/11 08:37:12;;;;;;;;;;;;;;;15.59;63.64;100438.06;5070315;28;2554;-93
2022/06/11 08:39:40;;;;;;;;;;;;;;;15.57;63.74;100436.66;5045265;28;2721;-93
2022/06/11 08:42:07;;;;;;;;;;;;;;;15.57;63.71;100440.19;5044862;28;2060;-93
2022/06/11 08:44:33;;;;;;;;;;;;;;;15.59;63.56;100451.63;5066553;28;2238;-93
2022/06/11 08:47:00;;;;;;;;;;;;;;;15.60;63.59;100434.25;5047246;28;2669;-92
2022/06/11 08:49:26;;;;;;;;;;;;;;;15.60;63.67;100458.69;5067609;28;2131;-93
2022/06/11 08:51:52;;;;;;;;;;;;;;;15.62;63.60;100447.59;5048790;28;1867;-92
2022/06/11 08:54:19;;;;;;;;;;;;;;;15.61;63.63;100449.47;5057681;28;1374;-94
2022/06/11 08:56:45;;;;;;;;;;;;;;;15.62;63.61;100445.69;5071378;28;2241;-93
2022/06/11 08:59:12;;;;;;;;;;;;;;;15.62;63.69;100451.13;5054960;28;2281;-94
2022/06/11 09:01:39;;;;;;;;;;;;;;;15.62;63.70;100442.97;5078951;28;2306;-94
2022/06/11 09:04:05;;;;;;;;;;;;;;;15.61;63.79;100444.03;5068609;28;1870;-94
2022/06/11 09:06:32;;;;;;;;;;;;;;;15.64;63.66;100445.41;5050506;28;2266;-94
2022/06/11 09:08:58;;;;;;;;;;;;;;;15.63;63.76;100446.50;5055917;28;2166;-94
2022/06/11 09:11:25;;;;;;;;;;;;;;;15.63;63.75;100454.66;5043863;28;2543;-94
2022/06/11 09:13:51;;;;;;;;;;;;;;;15.63;63.94;100460.06;5056196;28;2393;-94
2022/06/11 09:16:17;;;;;;;;;;;;;;;15.61;63.96;100451.38;5041097;28;2112;-94
2022/06/11 09:18:44;;;;;;;;;;;;;;;15.62;63.90;100450.31;5047043;28;2132;-94
2022/06/11 09:21:10;;;;;;;;;;;;;;;15.60;64.00;100447.84;5068994;28;2036;-94
2022/06/11 09:23:37;;;;;;;;;;;;;;;15.62;63.99;100456.56;5069719;28;2079;-94
2022/06/11 09:26:04;;;;;;;;;;;;;;;15.64;64.04;100469.84;5056837;28;2132;-94
2022/06/11 09:28:30;;;;;;;;;;;;;;;15.64;63.92;100473.38;5080145;28;2138;-94
2022/06/11 09:30:57;;;;;;;;;;;;;;;15.67;64.07;100488.34;5056171;28;2729;-94
2022/06/11 09:33:23;;;;;;;;;;;;;;;15.67;64.04;100482.91;5085284;28;2044;-94
2022/06/11 09:35:50;;;;;;;;;;;;;;;15.67;64.07;100486.47;5049364;28;5074;-94
2022/06/11 09:38:16;;;;;;;;;;;;;;;15.68;64.18;100487.31;5050151;28;2294;-94
2022/06/11 09:40:43;;;;;;;;;;;;;;;15.68;64.05;100490.03;5069401;28;2248;-94
2022/06/11 09:43:10;;;;;;;;;;;;;;;15.68;64.10;100492.75;5055561;28;2308;-94
2022/06/11 09:45:36;;;;;;;;;;;;;;;15.69;64.23;100493.56;5053872;28;2171;-94
2022/06/11 09:48:02;;;;;;;;;;;;;;;15.70;64.32;100525.88;5069976;28;2312;-94
2022/06/11 09:50:29;;;;;;;;;;;;;;;15.70;64.39;100504.16;5057505;28;1333;-95
2022/06/11 09:52:55;;;;;;;;;;;;;;;15.69;64.40;100502.53;5066995;28;2174;-95
2022/06/11 09:55:22;;;;;;;;;;;;;;;15.69;64.50;100494.38;5056899;28;1282;-95
2022/06/11 09:57:49;;;;;;;;;;;;;;;15.69;64.52;100496.28;5055492;28;2170;-94
2022/06/11 10:00:15;;;;;;;;;;;;;;;15.70;64.57;100495.19;5069615;28;2093;-94
2022/06/11 10:02:42;;;;;;;;;;;;;;;15.69;64.55;100494.38;5055112;28;1886;-94
2022/06/11 10:05:09;;;;;;;;;;;;;;;15.70;64.65;100492.47;5061719;28;2079;-95
2022/06/11 10:07:35;;;;;;;;;;;;;;;15.70;64.66;100498.72;5055677;28;2149;-94
2022/06/11 10:10:02;;;;;;;;;;;;;;;15.71;64.66;100496.84;5069458;28;2079;-95
2022/06/11 10:12:28;;;;;;;;;;;;;;;15.70;64.76;100487.88;5068927;28;2126;-95
2022/06/11 10:14:54;;;;;;;;;;;;;;;15.70;64.71;100500.63;5049134;28;2219;-95
2022/06/11 10:17:21;;;;;;;;;;;;;;;15.71;64.65;100503.09;5058634;28;2586;-94
2022/06/11 10:19:47;;;;;;;;;;;;;;;15.70;64.80;100506.06;5058460;28;2618;-95
2022/06/11 10:22:13;;;;;;;;;;;;;;;15.70;64.67;100496.00;5060833;28;1373;-94
2022/06/11 10:24:40;;;;;;;;;;;;;;;15.71;64.75;100496.84;5075492;28;2193;-94
2022/06/11 10:27:06;;;;;;;;;;;;;;;15.71;64.85;100502.28;5058922;28;2083;-95
2022/06/11 10:29:33;;;;;;;;;;;;;;;15.71;64.75;100502.28;5074927;28;2134;-95
2022/06/11 10:31:59;;;;;;;;;;;;;;;15.71;64.84;100497.66;5059690;28;2128;-94
2022/06/11 10:34:26;;;;;;;;;;;;;;;15.70;64.68;100490.56;5082356;28;2174;-94
2022/06/11 10:36:52;;;;;;;;;;;;;;;15.70;64.66;100490.56;5058011;28;2262;-95
2022/06/11 10:39:19;;;;;;;;;;;;;;;15.72;64.76;100490.34;5053588;28;5083;-95
2022/06/11 10:41:46;;;;;;;;;;;;;;;15.72;64.64;100479.47;5056535;28;2328;-95
2022/06/11 10:44:12;;;;;;;;;;;;;;;15.72;64.70;100493.06;5060425;28;2928;-95
2022/06/11 10:46:38;;;;;;;;;;;;;;;15.72;64.75;100495.78;5054715;28;1772;-94
2022/06/11 10:49:05;;;;;;;;;;;;;;;15.72;64.71;100493.06;5051742;28;2530;-94
2022/06/11 10:51:31;;;;;;;;;;;;;;;15.72;64.68;100491.16;5070642;28;2202;-94
2022/06/11 10:53:58;;;;;;;;;;;;;;;15.73;64.68;100484.63;5067375;28;2106;-94
2022/06/11 10:56:25;;;;;;;;;;;;;;;15.72;64.71;100480.28;5045695;28;2101;-94
2022/06/11 10:58:51;;;;;;;;;;;;;;;15.73;64.81;100481.09;5048809;28;1299;-95
2022/06/11 11:01:18;;;;;;;;;;;;;;;15.73;64.61;100489.25;5052847;28;2504;-95
2022/06/11 11:03:44;;;;;;;;;;;;;;;15.74;64.72;100477.34;5051070;28;1644;-94
2022/06/11 11:06:12;;;;;;;;;;;;;;;15.74;64.75;100478.16;5055122;28;2062;-94
2022/06/11 11:08:38;;;;;;;;;;;;;;;15.74;64.78;100491.72;5060954;28;2810;-95
2022/06/11 11:11:05;;;;;;;;;;;;;;;15.74;64.82;100491.72;5050140;28;2104;-95
2022/06/11 11:13:32;;;;;;;;;;;;;;;15.74;64.71;100485.47;5050816;28;2178;-94
2022/06/11 11:15:58;;;;;;;;;;;;;;;15.74;64.75;100488.19;5069153;28;2198;-94
2022/06/11 11:18:25;;;;;;;;;;;;;;;15.74;64.70;100485.47;5052089;28;2273;-94
2022/06/11 11:20:51;;;;;;;;;;;;;;;15.76;64.76;100488.75;5067034;28;2331;-94
2022/06/11 11:23:17;;;;;;;;;;;;;;;15.76;64.67;100495.00;5065794;28;2134;-94
2022/06/11 11:25:44;;;;;;;;;;;;;;;15.77;64.75;100493.13;5042392;28;2198;-95
2022/06/11 11:28:10;;;;;;;;;;;;;;;15.77;64.72;100488.50;5056706;28;2212;-95
2022/06/11 11:30:36;;;;;;;;;;;;;;;15.77;64.79;100502.06;5049012;28;2158;-94
2022/06/11 11:33:03;;;;;;;;;;;;;;;15.76;64.79;100500.41;5050904;28;2406;-95
2022/06/11 11:35:29;;;;;;;;;;;;;;;15.77;64.78;100506.69;5067549;28;2172;-94
2022/06/11 11:37:55;;;;;;;;;;;;;;;15.76;64.81;100489.56;5065024;28;2192;-95
2022/06/11 11:40:22;;;;;;;;;;;;;;;15.77;64.78;100488.50;5049222;28;4029;-95
2022/06/11 11:42:48;;;;;;;;;;;;;;;15.76;64.78;100497.69;5065654;28;2109;-95
2022/06/11 11:45:15;;;;;;;;;;;;;;;15.77;64.77;100487.69;5068402;28;5242;-95
2022/06/11 11:47:41;;;;;;;;;;;;;;;15.78;64.80;100489.31;5062805;28;5398;-94
2022/06/11 11:50:07;;;;;;;;;;;;;;;15.78;64.79;100481.16;5045304;28;2824;-93
2022/06/11 11:52:34;;;;;;;;;;;;;;;15.79;64.68;100480.09;5053719;28;2930;-95
2022/06/11 11:55:00;;;;;;;;;;;;;;;15.79;64.73;100483.63;5051421;28;2206;-95
2022/06/11 11:57:27;;;;;;;;;;;;;;;15.81;64.74;100492.34;5047597;28;1977;-95
2022/06/11 11:59:53;;;;;;;;;;;;;;;15.80;64.85;100482.56;5051959;28;2182;-94
2022/06/11 12:02:19;;;;;;;;;;;;;;;15.80;64.81;100471.69;5054499;28;2487;-95
2022/06/11 12:04:46;;;;;;;;;;;;;;;15.81;64.71;100481.47;5072239;28;3867;-94
2022/06/11 12:07:12;;;;;;;;;;;;;;;15.81;64.79;100469.78;5061842;28;1199;-94
2022/06/11 12:09:39;;;;;;;;;;;;;;;15.80;64.86;100468.97;5055999;28;4714;-94
2022/06/11 12:12:05;;;;;;;;;;;;;;;15.81;64.87;100469.78;5064307;28;2004;-94
2022/06/11 12:14:32;;;;;;;;;;;;;;;15.82;64.92;100461.38;5061154;28;1266;-95
2022/06/11 12:16:58;;;;;;;;;;;;;;;15.83;64.89;100467.66;5052747;28;2104;-96
2022/06/11 12:19:24;;;;;;;;;;;;;;;15.83;64.93;100457.59;5069431;28;2063;-95
2022/06/11 12:21:51;;;;;;;;;;;;;;;15.81;64.99;100459.75;5052810;28;1907;-95
2022/06/11 12:24:17;;;;;;;;;;;;;;;15.83;64.92;100471.19;5053566;28;1883;-95
2022/06/11 12:26:44;;;;;;;;;;;;;;;15.85;64.94;100481.78;5052842;28;3774;-95
2022/06/11 12:29:10;;;;;;;;;;;;;;;15.84;65.01;100478.25;5049350;28;5189;-95
2022/06/11 12:31:36;;;;;;;;;;;;;;;15.83;65.05;100470.38;5057683;28;1494;-95
2022/06/11 12:34:03;;;;;;;;;;;;;;;15.83;65.08;100476.63;5062611;28;4858;-95
2022/06/11 12:36:29;;;;;;;;;;;;;;;15.84;65.02;100467.38;5070632;28;2297;-96
2022/06/11 12:38:56;;;;;;;;;;;;;;;15.86;65.09;100470.66;5052451;28;2870;-95
2022/06/11 12:41:23;;;;;;;;;;;;;;;15.84;65.21;100461.94;5051117;28;3084;-95
2022/06/11 12:43:49;;;;;;;;;;;;;;;15.84;65.26;100466.56;5052448;28;2308;-95
2022/06/11 12:46:16;;;;;;;;;;;;;;;15.85;65.12;100458.19;5047996;28;2273;-95